Time;durP1;ratioP1;P1;durP2;ratioP2;P2;SDS_P1;SDS_P2;PMS_P1;PMS_P2;Temp;Humidity;BMP_temperature;BMP_pressure;BME280_temperature;BME280_humidity;BME280_pressure;Samples;Min_cycle;Max_cycle;Signal;HPM_P1;HPM_P2
2023/03/04 00:02:21;;;;;;;33.00;20.20;;;7.50;85.70;;;;;;5046036;28;20179;-65
2023/03/04 00:04:46;;;;;;;34.63;21.70;;;7.50;86.00;;;;;;5051063;28;20622;-66
2023/03/04 00:07:15;;;;;;;35.97;21.80;;;7.50;86.10;;;;;;5048199;28;20568;-66
2023/03/04 00:09:42;;;;;;;33.77;20.50;;;7.50;86.30;;;;;;5050909;28;20188;-66
2023/03/04 00:12:08;;;;;;;33.90;21.93;;;7.40;86.60;;;;;;5049555;28;20461;-66
2023/03/04 00:14:33;;;;;;;43.80;23.73;;;7.40;86.80;;;;;;5051675;28;20891;-66
2023/03/04 00:16:59;;;;;;;34.97;22.10;;;7.40;87.10;;;;;;5052806;28;20215;-66
2023/03/04 00:19:25;;;;;;;35.50;23.20;;;7.30;87.30;;;;;;5050697;28;20187;-66
2023/03/04 00:21:50;;;;;;;40.00;23.00;;;7.30;87.50;;;;;;5048546;28;20187;-66
2023/03/04 00:24:16;;;;;;;40.70;22.70;;;7.40;87.90;;;;;;5050386;28;20187;-66
2023/03/04 00:26:42;;;;;;;46.87;22.87;;;7.30;87.90;;;;;;5048185;28;20210;-66
2023/03/04 00:29:08;;;;;;;42.50;24.50;;;7.30;88.20;;;;;;5046676;28;20187;-66
2023/03/04 00:31:33;;;;;;;41.97;24.37;;;7.20;88.60;;;;;;5051987;28;20444;-66
2023/03/04 00:33:59;;;;;;;40.50;24.20;;;7.20;88.80;;;;;;5050154;28;20213;-67
2023/03/04 00:36:24;;;;;;;39.63;25.63;;;7.20;89.20;;;;;;5052026;28;20266;-66
2023/03/04 00:38:50;;;;;;;38.27;23.30;;;7.20;89.40;;;;;;5050941;28;20183;-66
2023/03/04 00:41:16;;;;;;;40.10;23.57;;;7.10;89.50;;;;;;5052804;28;20171;-67
2023/03/04 00:43:41;;;;;;;46.60;25.20;;;7.10;90.00;;;;;;5050669;28;20195;-67
2023/03/04 00:46:07;;;;;;;40.87;24.00;;;7.10;90.10;;;;;;5050698;28;20600;-66
2023/03/04 00:48:32;;;;;;;39.53;22.90;;;7.00;90.20;;;;;;5041210;28;20206;-66
2023/03/04 00:50:58;;;;;;;41.87;25.67;;;7.00;90.30;;;;;;5049348;28;20484;-66
2023/03/04 00:53:23;;;;;;;42.97;25.40;;;7.00;90.50;;;;;;5049985;28;20245;-65
2023/03/04 00:55:49;;;;;;;48.90;24.83;;;6.90;90.50;;;;;;5050654;28;20176;-64
2023/03/04 00:58:15;;;;;;;46.40;25.80;;;6.90;90.70;;;;;;5047472;28;20215;-65
2023/03/04 01:00:40;;;;;;;45.47;26.13;;;6.90;90.80;;;;;;5047975;28;20176;-65
2023/03/04 01:03:06;;;;;;;43.40;24.90;;;6.90;90.90;;;;;;5052076;28;20415;-66
2023/03/04 01:05:34;;;;;;;45.83;26.67;;;6.90;91.00;;;;;;5050789;28;20175;-66
2023/03/04 01:08:00;;;;;;;42.27;25.17;;;6.90;91.10;;;;;;5048852;28;20218;-66
2023/03/04 01:10:26;;;;;;;46.63;25.77;;;6.80;91.20;;;;;;5047751;28;20445;-66
2023/03/04 01:12:52;;;;;;;43.53;25.90;;;6.80;91.30;;;;;;5051415;28;20481;-66
2023/03/04 01:15:17;;;;;;;47.77;26.33;;;6.80;91.40;;;;;;5047471;28;20194;-66
2023/03/04 01:17:43;;;;;;;46.97;26.00;;;6.80;91.60;;;;;;5051273;28;20223;-66
2023/03/04 01:20:10;;;;;;;46.17;25.37;;;6.70;91.70;;;;;;5049178;28;20211;-66
2023/03/04 01:22:36;;;;;;;46.00;25.30;;;6.70;92.00;;;;;;5049344;28;20257;-66
2023/03/04 01:25:02;;;;;;;47.93;26.30;;;6.60;92.00;;;;;;5050389;28;20421;-66
2023/03/04 01:27:28;;;;;;;49.80;28.13;;;6.60;92.10;;;;;;5045516;28;20211;-66
2023/03/04 01:29:53;;;;;;;53.40;27.93;;;6.60;92.30;;;;;;5054044;28;20961;-66
2023/03/04 01:32:19;;;;;;;51.73;28.27;;;6.60;92.40;;;;;;5051489;28;20201;-65
2023/03/04 01:34:45;;;;;;;52.00;27.30;;;6.50;92.50;;;;;;5047953;28;20183;-65
2023/03/04 01:37:12;;;;;;;48.33;28.17;;;6.50;92.60;;;;;;5048253;28;20216;-66
2023/03/04 01:39:38;;;;;;;49.00;26.73;;;6.50;92.80;;;;;;5046870;28;20302;-65
2023/03/04 01:42:04;;;;;;;58.00;29.27;;;6.40;92.90;;;;;;5049619;28;20434;-65
2023/03/04 01:44:29;;;;;;;47.00;26.40;;;6.40;93.20;;;;;;5047858;28;20175;-65
2023/03/04 01:46:55;;;;;;;53.63;27.10;;;6.40;93.30;;;;;;5051489;28;20931;-65
2023/03/04 01:49:21;;;;;;;51.63;28.60;;;6.40;93.40;;;;;;5049319;28;20179;-64
2023/03/04 01:51:51;;;;;;;51.37;26.30;;;6.30;93.50;;;;;;5047854;28;20433;-64
2023/03/04 01:54:17;;;;;;;55.03;28.13;;;6.30;93.60;;;;;;5049417;28;20186;-64
2023/03/04 01:56:45;;;;;;;50.93;28.07;;;6.20;93.80;;;;;;5048388;28;20477;-64
2023/03/04 01:59:22;;;;;;;56.03;27.77;;;6.20;93.90;;;;;;5049938;28;20445;-64
2023/03/04 02:01:58;;;;;;;53.00;28.70;;;6.20;94.10;;;;;;5042379;28;20429;-65
2023/03/04 02:04:29;;;;;;;55.97;27.87;;;6.20;94.30;;;;;;5049543;28;20524;-65
2023/03/04 02:06:56;;;;;;;53.80;27.90;;;6.20;94.40;;;;;;5053436;28;20812;-65
2023/03/04 02:09:22;;;;;;;58.27;27.20;;;6.10;94.50;;;;;;5052944;28;20441;-66
2023/03/04 02:11:49;;;;;;;53.17;29.97;;;6.10;94.60;;;;;;5051196;28;20451;-65
2023/03/04 02:14:16;;;;;;;62.87;30.00;;;6.10;94.70;;;;;;5053582;28;20509;-65
2023/03/04 02:16:42;;;;;;;58.40;29.97;;;6.10;94.80;;;;;;5051799;28;20464;-65
2023/03/04 02:19:35;;;;;;;51.63;28.13;;;6.00;95.10;;;;;;5056113;28;20437;-65
2023/03/04 02:22:01;;;;;;;52.17;29.00;;;6.00;95.10;;;;;;5054889;28;20429;-65
2023/03/04 02:24:34;;;;;;;55.20;25.90;;;6.00;95.20;;;;;;5054606;28;20491;-64
2023/03/04 02:27:00;;;;;;;53.23;27.20;;;6.00;95.30;;;;;;5041144;28;20548;-65
2023/03/04 02:29:27;;;;;;;59.97;26.30;;;6.00;95.40;;;;;;5051110;28;20445;-65
2023/03/04 02:31:53;;;;;;;61.67;27.40;;;6.00;95.60;;;;;;5051331;28;21445;-65
2023/03/04 02:34:22;;;;;;;57.27;29.13;;;5.90;95.90;;;;;;5056112;28;20483;-65
2023/03/04 02:36:50;;;;;;;59.17;28.97;;;5.90;95.90;;;;;;5052255;28;20473;-65
2023/03/04 02:39:18;;;;;;;55.83;29.90;;;5.80;96.00;;;;;;5051932;28;20515;-65
2023/03/04 02:41:44;;;;;;;61.70;30.30;;;5.80;96.10;;;;;;5050330;28;20433;-65
2023/03/04 02:44:19;;;;;;;59.23;29.47;;;5.80;96.30;;;;;;5056794;28;20574;-65
2023/03/04 02:46:46;;;;;;;59.80;28.07;;;5.80;96.40;;;;;;5052173;28;20840;-65
2023/03/04 02:49:12;;;;;;;60.23;29.70;;;5.70;96.50;;;;;;5053631;28;20600;-65
2023/03/04 02:51:38;;;;;;;56.33;28.77;;;5.70;96.60;;;;;;5049302;28;20536;-65
2023/03/04 02:54:04;;;;;;;65.03;29.60;;;5.70;96.80;;;;;;5050156;28;20183;-65
2023/03/04 02:56:30;;;;;;;53.20;28.70;;;5.70;96.90;;;;;;5051848;28;20465;-65
2023/03/04 02:58:55;;;;;;;56.77;29.40;;;5.70;97.10;;;;;;5049043;28;20857;-66
2023/03/04 03:01:21;;;;;;;65.67;29.80;;;5.70;97.30;;;;;;5046505;28;20175;-65
2023/03/04 03:03:46;;;;;;;61.93;30.17;;;5.60;97.40;;;;;;5051927;28;20179;-65
2023/03/04 03:06:12;;;;;;;68.97;31.63;;;5.70;97.60;;;;;;5053317;28;20732;-65
2023/03/04 03:08:37;;;;;;;60.20;28.83;;;5.60;97.70;;;;;;5044744;28;20198;-65
2023/03/04 03:11:03;;;;;;;59.90;29.00;;;5.60;97.90;;;;;;5047864;28;20180;-65
2023/03/04 03:13:29;;;;;;;55.90;29.03;;;5.60;98.00;;;;;;5046442;28;20262;-66
2023/03/04 03:15:54;;;;;;;70.33;29.43;;;5.60;98.30;;;;;;5047416;28;20176;-65
2023/03/04 03:18:20;;;;;;;57.93;29.17;;;5.60;98.40;;;;;;5050175;28;20216;-65
2023/03/04 03:20:46;;;;;;;53.83;26.60;;;5.60;98.40;;;;;;5052807;28;20199;-65
2023/03/04 03:23:11;;;;;;;54.10;26.57;;;5.50;98.80;;;;;;5051268;28;20179;-65
2023/03/04 03:25:37;;;;;;;60.00;28.23;;;5.50;99.10;;;;;;5051557;28;20861;-65
2023/03/04 03:28:03;;;;;;;58.23;28.03;;;5.50;99.30;;;;;;5046895;28;20210;-65
2023/03/04 03:30:28;;;;;;;70.43;30.20;;;5.50;99.40;;;;;;5050915;28;20198;-65
2023/03/04 03:32:54;;;;;;;55.83;27.20;;;5.50;99.50;;;;;;5050414;28;20183;-65
2023/03/04 03:35:20;;;;;;;61.10;30.00;;;5.50;99.60;;;;;;5052189;28;20592;-65
2023/03/04 03:37:47;;;;;;;53.63;27.37;;;5.50;99.60;;;;;;5045280;28;20214;-65
2023/03/04 03:40:13;;;;;;;56.70;29.40;;;5.50;99.70;;;;;;5055653;28;20658;-65
2023/03/04 03:42:39;;;;;;;62.97;30.50;;;5.50;99.70;;;;;;5053724;28;20436;-65
2023/03/04 03:45:05;;;;;;;65.27;30.50;;;5.50;99.80;;;;;;5057109;28;20421;-65
2023/03/04 03:47:31;;;;;;;56.77;28.00;;;5.50;99.90;;;;;;5055682;28;20214;-65
2023/03/04 03:49:56;;;;;;;65.73;28.80;;;5.50;99.90;;;;;;5053091;28;20483;-65
2023/03/04 03:52:22;;;;;;;62.97;29.50;;;5.50;99.90;;;;;;5054923;28;20187;-65
2023/03/04 03:54:47;;;;;;;64.37;29.57;;;5.40;99.90;;;;;;5053328;28;20616;-65
2023/03/04 03:57:13;;;;;;;67.50;27.77;;;5.40;99.90;;;;;;5053439;28;20211;-66
2023/03/04 03:59:38;;;;;;;57.60;27.90;;;5.40;99.90;;;;;;5051128;28;20175;-66
2023/03/04 04:02:04;;;;;;;58.00;26.93;;;5.40;99.90;;;;;;5055903;28;20183;-66
2023/03/04 04:04:30;;;;;;;67.70;28.87;;;5.40;99.90;;;;;;5048759;28;20187;-65
2023/03/04 04:06:55;;;;;;;58.37;29.37;;;5.40;99.90;;;;;;5052013;28;20223;-66
2023/03/04 04:09:21;;;;;;;62.33;28.27;;;5.40;99.90;;;;;;5050851;28;20182;-66
2023/03/04 04:11:46;;;;;;;70.50;30.03;;;5.40;99.90;;;;;;5051688;28;20790;-65
2023/03/04 04:14:13;;;;;;;56.33;25.93;;;5.40;99.90;;;;;;5053258;28;20194;-64
2023/03/04 04:16:39;;;;;;;60.43;27.37;;;5.30;99.90;;;;;;5051763;28;20207;-65
2023/03/04 04:19:05;;;;;;;62.93;27.63;;;5.30;99.90;;;;;;5047033;28;20440;-65
2023/03/04 04:21:30;;;;;;;57.27;27.40;;;5.30;99.90;;;;;;5046245;28;20903;-65
2023/03/04 04:23:56;;;;;;;58.53;27.57;;;5.30;99.90;;;;;;5046971;28;20175;-65
2023/03/04 04:26:21;;;;;;;63.93;29.80;;;5.30;99.90;;;;;;5050933;28;20298;-65
2023/03/04 04:28:47;;;;;;;58.20;28.50;;;5.30;99.90;;;;;;5044801;28;20521;-65
2023/03/04 04:31:13;;;;;;;55.20;27.60;;;5.30;99.90;;;;;;5052336;28;20239;-64
2023/03/04 04:33:38;;;;;;;62.13;26.67;;;5.30;99.90;;;;;;5048164;28;20183;-65
2023/03/04 04:36:04;;;;;;;59.20;30.00;;;5.30;99.90;;;;;;5049507;28;20210;-65
2023/03/04 04:38:30;;;;;;;56.00;26.23;;;5.20;99.90;;;;;;5049283;28;21066;-64
2023/03/04 04:41:00;;;;;;;56.13;27.70;;;5.20;99.90;;;;;;5051589;28;20476;-65
2023/03/04 04:43:25;;;;;;;57.33;27.90;;;5.20;99.90;;;;;;5054249;28;20812;-64
2023/03/04 04:45:51;;;;;;;66.77;27.40;;;5.20;99.90;;;;;;5050926;28;20456;-63
2023/03/04 04:48:16;;;;;;;54.80;26.90;;;5.20;99.90;;;;;;5052469;28;20190;-65
2023/03/04 04:50:42;;;;;;;58.87;28.00;;;5.10;99.90;;;;;;5049270;28;20192;-67
2023/03/04 04:53:11;;;;;;;53.23;26.43;;;5.10;99.90;;;;;;5046774;28;20198;-65
2023/03/04 04:55:37;;;;;;;58.10;26.23;;;5.10;99.90;;;;;;5047294;28;20179;-65
2023/03/04 04:58:05;;;;;;;59.47;27.90;;;5.10;99.90;;;;;;5048638;28;20480;-65
2023/03/04 05:00:31;;;;;;;62.83;29.23;;;5.10;99.90;;;;;;5052726;28;20221;-65
2023/03/04 05:02:56;;;;;;;58.40;27.67;;;5.10;99.90;;;;;;5048092;28;20437;-65
2023/03/04 05:05:22;;;;;;;58.83;28.13;;;5.10;99.90;;;;;;5052170;28;20286;-65
2023/03/04 05:07:47;;;;;;;63.30;29.43;;;5.10;99.90;;;;;;5045070;28;20278;-65
2023/03/04 05:10:13;;;;;;;60.73;27.27;;;5.10;99.90;;;;;;5049326;28;20178;-65
2023/03/04 05:12:38;;;;;;;71.77;29.20;;;5.10;99.90;;;;;;5052138;28;20232;-66
2023/03/04 05:15:04;;;;;;;56.73;27.07;;;5.10;99.90;;;;;;5050100;28;20252;-66
2023/03/04 05:17:30;;;;;;;61.17;28.63;;;5.10;99.90;;;;;;5053404;28;20211;-66
2023/03/04 05:19:55;;;;;;;63.47;29.17;;;5.00;99.90;;;;;;5046841;28;20472;-66
2023/03/04 05:22:21;;;;;;;59.90;28.30;;;5.00;99.90;;;;;;5046988;28;20723;-65
2023/03/04 05:24:47;;;;;;;53.20;26.43;;;5.00;99.90;;;;;;5048605;28;20176;-65
2023/03/04 05:27:12;;;;;;;66.57;28.70;;;5.00;99.90;;;;;;5052149;28;20213;-66
2023/03/04 05:29:38;;;;;;;62.73;28.03;;;5.00;99.90;;;;;;5048920;28;20195;-66
2023/03/04 05:32:03;;;;;;;55.40;26.70;;;5.00;99.90;;;;;;5049413;28;20190;-66
2023/03/04 05:34:29;;;;;;;59.20;25.87;;;5.00;99.90;;;;;;5051065;28;20188;-66
2023/03/04 05:36:54;;;;;;;66.00;29.07;;;5.00;99.90;;;;;;5044707;28;20241;-66
2023/03/04 05:39:20;;;;;;;62.37;30.33;;;5.00;99.90;;;;;;5048791;28;20333;-65
2023/03/04 05:41:46;;;;;;;64.20;29.53;;;5.00;99.90;;;;;;5050829;28;20252;-65
2023/03/04 05:44:11;;;;;;;58.13;28.60;;;5.00;99.90;;;;;;5056720;28;20194;-65
2023/03/04 05:46:37;;;;;;;63.50;28.00;;;5.00;99.90;;;;;;5050472;28;20234;-65
2023/03/04 05:49:02;;;;;;;60.20;28.37;;;5.00;99.90;;;;;;5054372;28;21001;-66
2023/03/04 05:51:28;;;;;;;61.40;28.90;;;5.00;99.90;;;;;;5052375;28;20198;-65
2023/03/04 05:53:53;;;;;;;60.80;28.33;;;5.00;99.90;;;;;;5049516;28;20582;-66
2023/03/04 05:56:20;;;;;;;65.40;28.80;;;5.00;99.90;;;;;;5054305;28;20216;-66
2023/03/04 05:58:48;;;;;;;62.67;28.00;;;4.90;99.90;;;;;;5049071;28;20179;-66
2023/03/04 06:01:14;;;;;;;63.20;28.33;;;4.90;99.90;;;;;;5054563;28;20417;-68
2023/03/04 06:03:42;;;;;;;62.07;27.90;;;4.90;99.90;;;;;;5055474;28;20817;-65
2023/03/04 06:06:08;;;;;;;59.80;26.77;;;4.90;99.90;;;;;;5055606;28;20842;-67
2023/03/04 06:08:33;;;;;;;64.80;28.67;;;4.80;99.90;;;;;;5058898;28;20425;-66
2023/03/04 06:10:59;;;;;;;58.03;27.23;;;4.80;99.90;;;;;;5049609;28;20498;-66
2023/03/04 06:13:25;;;;;;;67.47;29.80;;;4.80;99.90;;;;;;5056557;28;20177;-65
2023/03/04 06:15:56;;;;;;;57.20;28.40;;;4.80;99.90;;;;;;5054467;28;20845;-65
2023/03/04 06:18:22;;;;;;;60.33;27.13;;;4.70;99.90;;;;;;5049066;28;20556;-65
2023/03/04 06:20:47;;;;;;;56.43;27.83;;;4.70;99.90;;;;;;5049347;28;20590;-65
2023/03/04 06:23:13;;;;;;;64.87;28.30;;;4.70;99.90;;;;;;5052959;28;20447;-64
2023/03/04 06:25:39;;;;;;;57.63;26.97;;;4.60;99.90;;;;;;5048942;28;20179;-65
2023/03/04 06:28:04;;;;;;;55.50;26.57;;;4.60;99.90;;;;;;5054019;28;20199;-65
2023/03/04 06:30:30;;;;;;;68.50;27.83;;;4.60;99.90;;;;;;5054596;28;20183;-66
2023/03/04 06:32:55;;;;;;;60.57;28.77;;;4.60;99.90;;;;;;5055222;28;21310;-66
2023/03/04 06:35:21;;;;;;;56.73;28.07;;;4.60;99.90;;;;;;5052586;28;20983;-65
2023/03/04 06:37:46;;;;;;;67.90;29.60;;;4.70;99.90;;;;;;5050936;28;20223;-65
2023/03/04 06:40:13;;;;;;;51.23;26.70;;;4.70;99.90;;;;;;5053319;28;20389;-65
2023/03/04 06:42:39;;;;;;;52.63;26.17;;;4.70;99.90;;;;;;5053366;28;20198;-65
2023/03/04 06:45:05;;;;;;;58.23;29.10;;;4.70;99.90;;;;;;5047178;28;20552;-65
2023/03/04 06:47:31;;;;;;;71.43;30.50;;;4.70;99.90;;;;;;5055814;28;20509;-66
2023/03/04 06:49:57;;;;;;;64.57;30.10;;;4.70;99.90;;;;;;5050287;28;20483;-65
2023/03/04 06:52:22;;;;;;;60.70;27.83;;;4.70;99.90;;;;;;5053285;28;20187;-65
2023/03/04 06:54:48;;;;;;;69.13;28.67;;;4.80;99.90;;;;;;5048869;28;20192;-66
2023/03/04 06:57:14;;;;;;;63.43;31.10;;;4.80;99.90;;;;;;5052173;28;20535;-66
2023/03/04 06:59:39;;;;;;;58.53;28.27;;;4.80;99.90;;;;;;5048016;28;20964;-66
2023/03/04 07:02:06;;;;;;;63.67;30.37;;;4.90;99.90;;;;;;5049832;28;20722;-65
2023/03/04 07:04:31;;;;;;;59.53;28.87;;;5.00;99.90;;;;;;5050784;28;20206;-65
2023/03/04 07:07:00;;;;;;;61.67;28.20;;;5.00;99.90;;;;;;5051981;28;20456;-65
2023/03/04 07:09:25;;;;;;;51.17;24.90;;;5.00;99.90;;;;;;5046077;28;20214;-65
2023/03/04 07:11:51;;;;;;;57.03;27.87;;;5.10;99.90;;;;;;5045552;28;20595;-65
2023/03/04 07:14:16;;;;;;;62.03;27.20;;;5.10;99.90;;;;;;5051227;28;20192;-65
2023/03/04 07:16:42;;;;;;;59.83;28.60;;;5.20;99.90;;;;;;5051497;28;20215;-65
2023/03/04 07:19:08;;;;;;;57.77;26.93;;;5.20;99.90;;;;;;5051913;28;20722;-65
2023/03/04 07:21:33;;;;;;;59.27;28.23;;;5.20;99.90;;;;;;5049709;28;20252;-65
2023/03/04 07:23:59;;;;;;;55.43;25.53;;;5.20;99.90;;;;;;5046567;28;20271;-65
2023/03/04 07:26:25;;;;;;;60.90;28.07;;;5.30;99.90;;;;;;5051303;28;20313;-65
2023/03/04 07:28:53;;;;;;;58.10;26.97;;;5.30;99.90;;;;;;5046757;28;20194;-64
2023/03/04 07:31:29;;;;;;;57.10;29.60;;;5.30;99.90;;;;;;5052054;28;20183;-65
2023/03/04 07:34:07;;;;;;;70.80;30.07;;;5.40;99.90;;;;;;5047923;28;20558;-66
2023/03/04 07:36:35;;;;;;;52.00;27.00;;;5.40;99.90;;;;;;5053488;28;20906;-66
2023/03/04 07:39:01;;;;;;;61.57;26.63;;;5.40;99.90;;;;;;5042086;28;20432;-65
2023/03/04 07:41:28;;;;;;;51.50;27.87;;;5.40;99.90;;;;;;5049585;28;20465;-65
2023/03/04 07:43:56;;;;;;;48.03;25.30;;;5.50;99.90;;;;;;5038114;28;20469;-66
2023/03/04 07:46:22;;;;;;;55.90;26.27;;;5.40;99.90;;;;;;5040064;28;21040;-65
2023/03/04 07:48:47;;;;;;;57.73;27.33;;;5.40;99.90;;;;;;5042004;28;20443;-65
2023/03/04 07:51:16;;;;;;;52.70;23.87;;;5.50;99.90;;;;;;5049114;28;20171;-66
2023/03/04 07:53:44;;;;;;;47.07;23.77;;;5.30;99.90;;;;;;5050787;28;20235;-65
2023/03/04 07:56:16;;;;;;;47.63;24.57;;;5.30;99.90;;;;;;5044507;28;20878;-65
2023/03/04 07:58:42;;;;;;;45.77;24.40;;;5.40;99.90;;;;;;5047220;28;20858;-66
2023/03/04 08:01:13;;;;;;;53.10;26.10;;;5.50;99.90;;;;;;5053936;28;20449;-66
2023/03/04 08:03:39;;;;;;;45.20;23.47;;;5.50;99.90;;;;;;5050662;28;20454;-66
2023/03/04 08:06:07;;;;;;;41.37;22.37;;;5.50;99.90;;;;;;5063185;28;20786;-66
2023/03/04 08:08:33;;;;;;;40.57;22.20;;;5.60;99.90;;;;;;5046783;28;20434;-67
2023/03/04 08:10:59;;;;;;;39.77;21.20;;;5.50;99.90;;;;;;5043965;28;20436;-65
2023/03/04 08:13:25;;;;;;;41.90;21.83;;;5.50;99.90;;;;;;5048826;28;20433;-66
2023/03/04 08:15:50;;;;;;;39.17;21.23;;;5.30;99.90;;;;;;5044144;28;20799;-66
2023/03/04 08:18:16;;;;;;;44.27;21.73;;;5.40;99.90;;;;;;5049122;28;20211;-67
2023/03/04 08:20:42;;;;;;;42.03;20.90;;;5.40;99.90;;;;;;5052352;28;20190;-67
2023/03/04 08:23:11;;;;;;;48.23;23.63;;;5.40;99.90;;;;;;5053272;28;20179;-66
2023/03/04 08:25:41;;;;;;;47.93;23.23;;;5.40;99.90;;;;;;5046170;28;20441;-67
2023/03/04 08:28:07;;;;;;;43.47;22.90;;;5.30;99.90;;;;;;5045128;28;20510;-65
2023/03/04 08:30:33;;;;;;;47.63;23.77;;;5.40;99.90;;;;;;5047460;28;20442;-65
2023/03/04 08:33:00;;;;;;;47.63;24.60;;;5.50;99.90;;;;;;5051587;28;20996;-67
2023/03/04 08:35:26;;;;;;;37.43;20.30;;;5.60;99.90;;;;;;5046460;28;20448;-64
2023/03/04 08:37:51;;;;;;;41.07;22.00;;;5.60;99.90;;;;;;5044277;28;20468;-64
2023/03/04 08:40:17;;;;;;;34.70;21.73;;;5.70;99.90;;;;;;5046441;28;20194;-67
2023/03/04 08:42:43;;;;;;;40.27;22.50;;;5.80;99.90;;;;;;5052185;28;20237;-65
2023/03/04 08:45:09;;;;;;;38.27;21.97;;;5.80;99.90;;;;;;5047990;28;20187;-64
2023/03/04 08:47:35;;;;;;;45.10;22.97;;;5.90;99.90;;;;;;5054654;28;20579;-64
2023/03/04 08:50:01;;;;;;;47.30;22.63;;;6.00;99.90;;;;;;5049192;28;20494;-64
2023/03/04 08:52:29;;;;;;;44.90;24.37;;;6.00;99.90;;;;;;5049067;28;20179;-65
2023/03/04 08:54:55;;;;;;;41.10;22.40;;;6.10;99.90;;;;;;5044726;28;20179;-65
2023/03/04 08:57:20;;;;;;;44.27;24.30;;;6.20;99.90;;;;;;5048617;28;20834;-65
2023/03/04 08:59:46;;;;;;;41.63;24.17;;;6.10;99.90;;;;;;5048999;28;20539;-65
2023/03/04 09:02:11;;;;;;;42.33;24.60;;;6.10;99.90;;;;;;5051005;28;20182;-65
2023/03/04 09:04:37;;;;;;;43.07;24.33;;;6.10;99.90;;;;;;5048532;28;20183;-65
2023/03/04 09:07:03;;;;;;;36.10;22.17;;;6.10;99.90;;;;;;5046774;28;22159;-65
2023/03/04 09:09:28;;;;;;;40.30;24.43;;;6.20;99.90;;;;;;5047680;28;20187;-65
2023/03/04 09:11:54;;;;;;;38.10;23.20;;;6.20;99.90;;;;;;5049398;28;20192;-65
2023/03/04 09:14:19;;;;;;;44.87;24.20;;;6.40;99.90;;;;;;5046215;28;20190;-65
2023/03/04 09:16:45;;;;;;;40.10;22.57;;;6.60;99.90;;;;;;5043813;28;20730;-65
2023/03/04 09:19:10;;;;;;;42.83;23.60;;;6.70;99.90;;;;;;5050622;28;20186;-65
2023/03/04 09:21:36;;;;;;;37.63;23.57;;;6.80;99.90;;;;;;5047589;28;20199;-65
2023/03/04 09:24:02;;;;;;;34.47;21.87;;;6.80;99.90;;;;;;5043555;28;20186;-65
2023/03/04 09:26:28;;;;;;;39.27;23.90;;;6.80;99.90;;;;;;5049197;28;20256;-65
2023/03/04 09:28:57;;;;;;;40.97;24.53;;;6.90;99.90;;;;;;5046618;28;20487;-65
2023/03/04 09:31:24;;;;;;;39.20;22.40;;;7.00;99.90;;;;;;5046446;28;20476;-64
2023/03/04 09:33:51;;;;;;;44.00;23.93;;;7.10;99.90;;;;;;5047076;28;20437;-64
2023/03/04 09:36:18;;;;;;;49.57;26.07;;;7.20;99.90;;;;;;5046234;28;20455;-65
2023/03/04 09:38:44;;;;;;;47.00;25.37;;;7.20;99.90;;;;;;5043475;28;20475;-64
2023/03/04 09:41:22;;;;;;;47.03;26.20;;;7.20;99.90;;;;;;5043632;28;20421;-65
2023/03/04 09:43:49;;;;;;;45.03;25.20;;;7.20;99.90;;;;;;5043813;28;20442;-64
2023/03/04 09:46:21;;;;;;;41.77;23.80;;;7.30;99.90;;;;;;5039418;28;20481;-64
2023/03/04 09:48:53;;;;;;;54.37;29.13;;;7.30;99.90;;;;;;5044719;28;20441;-63
2023/03/04 09:51:37;;;;;;;52.30;29.20;;;7.30;99.90;;;;;;5049032;28;20486;-63
2023/03/04 09:54:20;;;;;;;51.37;29.13;;;7.40;99.90;;;;;;5044393;28;20528;-63
2023/03/04 09:56:48;;;;;;;48.93;28.33;;;7.40;99.90;;;;;;5045372;28;20542;-64
2023/03/04 09:59:16;;;;;;;61.10;32.20;;;7.40;99.90;;;;;;5042643;28;20438;-64
2023/03/04 10:01:55;;;;;;;46.97;28.87;;;7.40;99.90;;;;;;5048878;28;20425;-64
2023/03/04 10:04:38;;;;;;;54.60;31.33;;;7.40;99.90;;;;;;5044377;28;20818;-65
2023/03/04 10:07:09;;;;;;;51.50;30.87;;;7.50;99.90;;;;;;5041039;28;20479;-64
2023/03/04 10:09:54;;;;;;;53.13;28.13;;;7.50;99.90;;;;;;5042655;28;20530;-66
2023/03/04 10:12:24;;;;;;;52.43;31.43;;;7.50;99.90;;;;;;5060157;28;20974;-65
2023/03/04 10:15:01;;;;;;;44.37;27.83;;;7.50;99.90;;;;;;5049235;28;20443;-64
2023/03/04 10:17:38;;;;;;;46.60;26.30;;;7.60;99.90;;;;;;5047814;28;21232;-64
2023/03/04 10:20:17;;;;;;;47.23;26.67;;;7.60;99.90;;;;;;5043630;28;20433;-65
2023/03/04 10:22:46;;;;;;;51.80;27.47;;;7.70;99.90;;;;;;5049570;28;20433;-63
2023/03/04 10:25:27;;;;;;;49.17;27.93;;;7.70;99.90;;;;;;5041512;28;20430;-64
2023/03/04 10:28:01;;;;;;;47.53;27.37;;;7.70;99.90;;;;;;5050922;28;20468;-65
2023/03/04 10:30:40;;;;;;;47.43;28.93;;;7.70;99.90;;;;;;5052911;28;20526;-66
2023/03/04 10:33:12;;;;;;;47.17;28.57;;;7.70;99.90;;;;;;5053562;28;21136;-64
2023/03/04 10:35:38;;;;;;;47.80;26.33;;;7.80;99.90;;;;;;5051919;28;20503;-64
2023/03/04 10:38:12;;;;;;;46.73;27.10;;;7.70;99.90;;;;;;5048188;28;21002;-65
2023/03/04 10:40:40;;;;;;;47.57;25.80;;;7.70;99.90;;;;;;5046423;28;20180;-65
2023/03/04 10:43:12;;;;;;;48.10;26.80;;;7.70;99.90;;;;;;5049003;28;20686;-68
2023/03/04 10:45:39;;;;;;;41.67;25.30;;;7.70;99.90;;;;;;5054708;28;20838;-64
2023/03/04 10:48:05;;;;;;;45.50;25.63;;;7.70;99.90;;;;;;5049006;28;20538;-65
2023/03/04 10:50:31;;;;;;;52.50;26.20;;;7.70;99.90;;;;;;5049153;28;20432;-66
2023/03/04 10:52:57;;;;;;;43.60;25.43;;;7.70;99.90;;;;;;5049508;28;21098;-64
2023/03/04 10:55:42;;;;;;;44.50;26.67;;;7.70;99.90;;;;;;5050411;28;20464;-65
2023/03/04 10:58:14;;;;;;;38.77;24.37;;;7.70;99.90;;;;;;5050440;28;22077;-66
2023/03/04 11:00:40;;;;;;;44.13;27.07;;;7.80;99.90;;;;;;5047992;28;20437;-66
2023/03/04 11:03:28;;;;;;;43.70;23.50;;;7.80;99.70;;;;;;5050493;28;20428;-65
2023/03/04 11:06:20;;;;;;;43.17;23.97;;;7.80;99.40;;;;;;5051262;28;20270;-65
2023/03/04 11:08:58;;;;;;;42.00;22.30;;;7.80;99.60;;;;;;5049136;28;20418;-66
2023/03/04 11:11:41;;;;;;;48.57;26.00;;;7.80;99.50;;;;;;5053060;28;20421;-65
2023/03/04 11:14:29;;;;;;;40.60;25.20;;;7.80;99.20;;;;;;5052705;28;20420;-65
2023/03/04 11:17:01;;;;;;;42.23;25.33;;;7.80;99.30;;;;;;5052891;28;21096;-66
2023/03/04 11:19:41;;;;;;;38.27;23.87;;;7.70;99.20;;;;;;5054162;28;20420;-65
2023/03/04 11:22:09;;;;;;;43.80;25.43;;;7.70;99.30;;;;;;5050923;28;21148;-65
2023/03/04 11:24:36;;;;;;;42.97;25.70;;;7.60;99.50;;;;;;5051522;28;20433;-66
2023/03/04 11:27:04;;;;;;;50.20;27.23;;;7.60;99.50;;;;;;5048488;28;20506;-65
2023/03/04 11:29:41;;;;;;;39.20;25.83;;;7.60;99.50;;;;;;5050169;28;20926;-65
2023/03/04 11:32:39;;;;;;;47.20;24.87;;;7.60;99.50;;;;;;5056844;28;20440;-66
2023/03/04 11:35:29;;;;;;;44.13;23.77;;;7.60;99.50;;;;;;5037161;28;20528;-66
2023/03/04 11:38:17;;;;;;;44.40;24.20;;;7.70;99.50;;;;;;5045460;28;20836;-66
2023/03/04 11:40:57;;;;;;;44.17;23.63;;;7.70;99.30;;;;;;5054277;28;20460;-66
2023/03/04 11:43:38;;;;;;;45.77;25.47;;;7.70;99.40;;;;;;5053901;28;20421;-66
2023/03/04 11:46:13;;;;;;;40.70;23.43;;;7.70;99.30;;;;;;5052218;28;20445;-66
2023/03/04 11:49:10;;;;;;;40.27;22.43;;;7.70;99.30;;;;;;5049694;28;20435;-66
2023/03/04 11:52:05;;;;;;;43.27;23.90;;;7.70;99.40;;;;;;5049660;28;20539;-65
2023/03/04 11:54:45;;;;;;;41.20;23.60;;;7.70;99.30;;;;;;5047195;28;20662;-66
2023/03/04 11:57:45;;;;;;;43.80;23.90;;;7.80;99.30;;;;;;5053450;28;20457;-65
2023/03/04 12:00:35;;;;;;;45.70;23.50;;;7.70;99.40;;;;;;5048187;28;20429;-65
2023/03/04 12:03:26;;;;;;;45.47;23.83;;;7.80;99.40;;;;;;5051088;28;20462;-66
2023/03/04 12:06:15;;;;;;;43.20;23.40;;;7.80;99.30;;;;;;5048679;28;20460;-66
2023/03/04 12:09:02;;;;;;;40.67;24.10;;;7.80;99.20;;;;;;5050158;28;20492;-65
2023/03/04 12:11:45;;;;;;;40.57;24.30;;;7.80;99.30;;;;;;5049128;28;20891;-66
2023/03/04 12:14:20;;;;;;;44.13;23.60;;;7.80;99.10;;;;;;5047623;28;21108;-65
2023/03/04 12:16:48;;;;;;;42.60;23.70;;;7.80;99.10;;;;;;5050978;28;20462;-65
2023/03/04 12:19:25;;;;;;;44.33;23.97;;;7.90;99.10;;;;;;5046094;28;20421;-65
2023/03/04 12:22:12;;;;;;;45.00;24.00;;;7.90;99.10;;;;;;5047905;28;20944;-65
2023/03/04 12:24:47;;;;;;;42.27;23.67;;;7.90;98.80;;;;;;5051916;28;20944;-65
2023/03/04 12:27:50;;;;;;;45.03;23.23;;;7.90;98.80;;;;;;5049544;28;20447;-65
2023/03/04 12:30:58;;;;;;;43.07;23.50;;;7.80;98.90;;;;;;5054550;28;20539;-65
2023/03/04 12:33:43;;;;;;;38.97;22.53;;;7.80;99.10;;;;;;5049585;28;21003;-65
2023/03/04 12:36:18;;;;;;;40.97;22.80;;;7.80;99.00;;;;;;5050596;28;20510;-66
2023/03/04 12:39:13;;;;;;;40.97;21.90;;;7.80;98.90;;;;;;5052717;28;20472;-66
2023/03/04 12:41:51;;;;;;;37.67;22.00;;;7.80;98.90;;;;;;5054408;28;20873;-66
2023/03/04 12:44:19;;;;;;;38.87;23.30;;;7.80;98.90;;;;;;5051469;28;20825;-66
2023/03/04 12:47:20;;;;;;;45.77;23.10;;;7.80;99.10;;;;;;5053312;28;20469;-66